Time;durP1;ratioP1;P1;durP2;ratioP2;P2;SDS_P1;SDS_P2;PMS_P1;PMS_P2;Temp;Humidity;BMP_temperature;BMP_pressure;BME280_temperature;BME280_humidity;BME280_pressure;Samples;Min_cycle;Max_cycle;Signal;HPM_P1;HPM_P2
2021/07/22 00:00:24;;;;;;;13.17;11.87;;;18.00;99.90;;;;;;6132072;23;20995;-83
2021/07/22 00:02:54;;;;;;;12.57;11.27;;;18.00;99.90;;;;;;6132480;23;20795;-83
2021/07/22 00:05:22;;;;;;;12.97;10.90;;;18.00;99.90;;;;;;6106783;23;20991;-83
2021/07/22 00:07:51;;;;;;;11.50;10.30;;;18.00;99.90;;;;;;6106714;23;20422;-83
2021/07/22 00:10:21;;;;;;;15.43;12.90;;;18.00;99.90;;;;;;6106544;23;20417;-83
2021/07/22 00:12:49;;;;;;;13.77;12.17;;;18.00;99.90;;;;;;6130478;23;20457;-83
2021/07/22 00:15:17;;;;;;;13.10;11.70;;;18.00;99.90;;;;;;6106251;23;20496;-83
2021/07/22 00:17:45;;;;;;;13.70;11.93;;;18.00;99.90;;;;;;6130400;23;20524;-83
2021/07/22 00:20:14;;;;;;;13.00;11.00;;;18.00;99.90;;;;;;6105991;23;20813;-82
2021/07/22 00:22:42;;;;;;;14.87;12.10;;;17.90;99.90;;;;;;6130492;23;20418;-82
2021/07/22 00:25:12;;;;;;;13.60;11.70;;;17.90;99.90;;;;;;6107223;23;20505;-83
2021/07/22 00:27:42;;;;;;;13.60;12.20;;;18.00;99.90;;;;;;6130023;23;20428;-83
2021/07/22 00:30:12;;;;;;;13.53;12.13;;;18.00;99.90;;;;;;6130446;23;20422;-83
2021/07/22 00:32:44;;;;;;;12.70;11.40;;;17.90;99.90;;;;;;6108438;23;20776;-82
2021/07/22 00:35:12;;;;;;;15.40;12.43;;;17.90;99.90;;;;;;6132124;23;20451;-83
2021/07/22 00:37:43;;;;;;;11.53;10.30;;;17.90;99.90;;;;;;6106079;23;20465;-82
2021/07/22 00:40:13;;;;;;;15.13;12.17;;;17.90;99.90;;;;;;6130714;23;20422;-82
2021/07/22 00:43:04;;;;;;;15.77;12.53;;;17.90;99.90;;;;;;6105646;23;20431;-82
2021/07/22 00:45:32;;;;;;;14.07;12.07;;;17.90;99.90;;;;;;6123027;23;20432;-82
2021/07/22 00:48:06;;;;;;;13.73;12.33;;;17.90;99.90;;;;;;6131018;23;20410;-83
2021/07/22 00:50:34;;;;;;;14.23;12.73;;;17.90;99.90;;;;;;6132080;23;20461;-83
2021/07/22 00:53:04;;;;;;;14.63;11.47;;;17.90;99.90;;;;;;6107718;23;20432;-83
2021/07/22 00:55:36;;;;;;;14.10;12.60;;;17.90;99.90;;;;;;6130801;23;20430;-83
2021/07/22 00:58:06;;;;;;;14.20;12.63;;;17.90;99.90;;;;;;6106490;23;20528;-83
2021/07/22 01:00:48;;;;;;;;;;;;;;;;;;;;;
2021/07/22 01:03:55;;;;;;;13.20;11.80;;;17.80;99.90;;;;;;6130417;23;20422;-83
2021/07/22 01:06:26;;;;;;;13.90;12.00;;;17.90;99.90;;;;;;6129936;23;20170;-82
2021/07/22 01:08:58;;;;;;;13.53;12.23;;;17.90;99.90;;;;;;6106031;23;20881;-83
2021/07/22 01:11:36;;;;;;;17.67;13.27;;;17.90;99.90;;;;;;6106076;23;20444;-83
2021/07/22 01:14:07;;;;;;;14.60;12.57;;;17.90;99.90;;;;;;6128950;23;20426;-83
2021/07/22 01:28:02;;;;;;;13.33;11.90;;;17.80;99.90;;;;;;5925130;23;20431;-83
2021/07/22 01:30:46;;;;;;;13.23;11.93;;;17.80;99.90;;;;;;6046502;23;20443;-82
2021/07/22 01:33:16;;;;;;;15.50;12.40;;;17.80;99.90;;;;;;6047683;23;20416;-83
2021/07/22 01:35:45;;;;;;;13.10;11.73;;;17.80;99.90;;;;;;6047307;23;20428;-83
2021/07/22 01:38:13;;;;;;;14.47;12.57;;;17.80;99.90;;;;;;6047470;23;20467;-83
2021/07/22 01:40:43;;;;;;;14.27;12.43;;;17.80;99.90;;;;;;6047499;23;20439;-83
2021/07/22 01:43:12;;;;;;;13.50;12.00;;;17.80;99.90;;;;;;6047424;23;20426;-83
2021/07/22 01:45:50;;;;;;;11.20;10.03;;;17.80;99.90;;;;;;6047296;23;20397;-83
2021/07/22 01:48:20;;;;;;;13.83;12.37;;;17.80;99.90;;;;;;6091020;23;20418;-83
2021/07/22 01:50:51;;;;;;;13.80;11.70;;;17.80;99.90;;;;;;6129819;23;20513;-83
2021/07/22 01:53:26;;;;;;;13.20;11.03;;;17.80;99.90;;;;;;6106341;23;20421;-82
2021/07/22 01:55:56;;;;;;;14.30;11.87;;;17.80;99.90;;;;;;6105934;23;20504;-83
2021/07/22 01:58:27;;;;;;;14.87;13.37;;;17.80;99.90;;;;;;6130125;23;20579;-83
2021/07/22 02:00:57;;;;;;;16.13;13.47;;;17.80;99.90;;;;;;6130133;23;20460;-83
2021/07/22 02:03:40;;;;;;;18.57;12.93;;;17.70;99.90;;;;;;6106611;23;20464;-83
2021/07/22 02:06:10;;;;;;;19.57;13.97;;;17.70;99.90;;;;;;6106436;23;20410;-83
2021/07/22 02:08:46;;;;;;;16.77;14.30;;;17.70;99.90;;;;;;6130653;23;20497;-83
2021/07/22 02:11:15;;;;;;;18.80;13.65;;;17.70;99.90;;;;;;6104764;23;20418;-83
2021/07/22 02:13:50;;;;;;;14.30;12.37;;;17.70;99.90;;;;;;6105959;23;20251;-82
2021/07/22 02:16:58;;;;;;;;;;;;;;;;;;;;;
2021/07/22 02:27:35;;;;;;;15.03;13.43;;;17.70;99.90;;;;;;5845804;24;20873;-83
2021/07/22 02:30:29;;;;;;;;;;;;;;;;;;;;;
2021/07/22 02:40:08;;;;;;;16.20;13.27;;;17.60;99.90;;;;;;5709254;24;20450;-83
2021/07/22 02:42:38;;;;;;;15.90;12.90;;;17.60;99.90;;;;;;5820818;23;20765;-83
2021/07/22 02:45:11;;;;;;;19.00;14.73;;;17.60;99.90;;;;;;5993084;23;20902;-83
2021/07/22 02:47:42;;;;;;;17.90;15.37;;;17.60;99.90;;;;;;5991301;23;20437;-82
2021/07/22 02:50:12;;;;;;;17.23;13.13;;;17.60;99.90;;;;;;5992412;23;20414;-83
2021/07/22 02:52:44;;;;;;;18.13;14.37;;;17.60;99.90;;;;;;5992405;23;20462;-83
2021/07/22 02:55:31;;;;;;;;;;;;;;;;;;;;;
2021/07/22 03:19:53;;;;;;;23.27;15.40;;;17.30;99.90;;;;;;5897732;24;20975;-83
2021/07/22 03:22:34;;;;;;;20.33;15.70;;;17.30;99.90;;;;;;5989110;23;20421;-83
2021/07/22 03:25:17;;;;;;;17.97;14.20;;;17.30;99.90;;;;;;6020063;23;20430;-83
2021/07/22 03:27:59;;;;;;;18.47;15.00;;;17.20;99.90;;;;;;6044122;23;20420;-83
2021/07/22 03:30:51;;;;;;;19.57;15.90;;;17.20;99.90;;;;;;6083178;23;20410;-83
2021/07/22 03:33:38;;;;;;;19.63;15.13;;;17.30;99.90;;;;;;6107428;23;20410;-83
2021/07/22 03:36:20;;;;;;;19.47;14.13;;;17.30;99.90;;;;;;6131729;23;20432;-83
2021/07/22 03:39:03;;;;;;;20.10;14.65;;;17.20;99.90;;;;;;6110310;23;20476;-83
2021/07/22 03:41:34;;;;;;;15.90;14.00;;;17.20;99.90;;;;;;6144407;23;20240;-83
2021/07/22 03:44:13;;;;;;;16.43;13.13;;;17.20;99.90;;;;;;6107701;23;20414;-83
2021/07/22 03:46:41;;;;;;;16.57;14.17;;;17.20;99.90;;;;;;6107292;23;20385;-83
2021/07/22 03:49:13;;;;;;;16.80;13.70;;;17.20;99.90;;;;;;6107146;23;20409;-83
2021/07/22 03:51:43;;;;;;;17.40;13.87;;;17.20;99.90;;;;;;6131810;23;20444;-82
2021/07/22 03:54:13;;;;;;;16.40;13.77;;;17.20;99.90;;;;;;6132236;23;20510;-83
2021/07/22 03:56:41;;;;;;;19.00;14.90;;;17.20;99.90;;;;;;6107497;23;20751;-83
2021/07/22 03:59:17;;;;;;;15.30;13.60;;;17.20;99.90;;;;;;6108307;23;20488;-83
2021/07/22 04:01:45;;;;;;;18.77;13.20;;;17.20;99.90;;;;;;6131626;23;20894;-83
2021/07/22 04:04:20;;;;;;;17.47;13.90;;;17.20;99.90;;;;;;6131584;23;20416;-83
2021/07/22 04:06:54;;;;;;;15.20;13.50;;;17.20;99.90;;;;;;6132326;23;20435;-83
2021/07/22 04:10:11;;;;;;;15.60;14.00;;;17.20;99.90;;;;;;6115556;23;20423;-83
2021/07/22 04:12:57;;;;;;;19.90;14.93;;;17.10;99.90;;;;;;6106993;23;20440;-83
2021/07/22 04:15:34;;;;;;;18.17;14.70;;;17.10;99.90;;;;;;6133056;23;20380;-83
2021/07/22 04:18:28;;;;;;;18.70;14.63;;;17.10;99.90;;;;;;6097668;23;20800;-83
2021/07/22 04:21:25;;;;;;;18.40;15.20;;;17.10;99.90;;;;;;6131823;23;20441;-82
2021/07/22 04:23:56;;;;;;;19.10;14.30;;;17.10;99.90;;;;;;6132803;23;20422;-83
2021/07/22 04:26:39;;;;;;;16.10;13.50;;;17.10;99.90;;;;;;6107431;23;20760;-83
2021/07/22 04:29:20;;;;;;;19.10;14.30;;;17.20;99.90;;;;;;6107892;23;20930;-83
2021/07/22 04:31:55;;;;;;;15.40;13.40;;;17.20;99.90;;;;;;6107859;23;20421;-83
2021/07/22 04:34:45;;;;;;;19.70;15.00;;;17.20;99.90;;;;;;6107439;23;20407;-83
2021/07/22 04:37:33;;;;;;;16.67;13.50;;;17.20;99.90;;;;;;6143744;23;20740;-83
2021/07/22 04:40:24;;;;;;;14.90;12.70;;;17.20;99.90;;;;;;6133211;23;20490;-83
2021/07/22 04:43:16;;;;;;;17.80;14.00;;;17.20;99.90;;;;;;6132204;23;20405;-83
2021/07/22 04:46:09;;;;;;;16.00;13.90;;;17.20;99.90;;;;;;6107072;23;20425;-83
2021/07/22 04:49:00;;;;;;;16.27;13.03;;;17.30;99.90;;;;;;6123051;23;20614;-83
2021/07/22 04:51:39;;;;;;;18.67;14.10;;;17.30;99.90;;;;;;6107348;23;20468;-83
2021/07/22 04:54:21;;;;;;;20.48;15.23;;;17.30;99.90;;;;;;6133830;23;20478;-84
2021/07/22 04:56:52;;;;;;;19.90;13.50;;;17.30;99.90;;;;;;6087768;23;20200;-84
2021/07/22 04:59:25;;;;;;;16.77;13.33;;;17.30;99.90;;;;;;6110799;23;20441;-84
2021/07/22 05:02:05;;;;;;;14.30;12.73;;;17.30;99.90;;;;;;6110408;23;20943;-84
2021/07/22 05:04:36;;;;;;;20.13;13.93;;;17.30;99.90;;;;;;6135193;23;20399;-83
2021/07/22 05:07:20;;;;;;;15.33;12.33;;;17.30;99.90;;;;;;6111525;23;20440;-83
2021/07/22 05:10:32;;;;;;;14.80;13.10;;;17.40;99.90;;;;;;6109879;23;20438;-82
2021/07/22 05:13:39;;;;;;;15.03;11.90;;;17.40;99.90;;;;;;6123649;23;20474;-82
2021/07/22 05:16:13;;;;;;;13.20;11.47;;;17.50;99.90;;;;;;6111838;23;20410;-82
2021/07/22 05:19:16;;;;;;;13.60;11.37;;;17.50;99.90;;;;;;6126097;23;20919;-82
2021/07/22 05:21:45;;;;;;;14.90;10.53;;;17.50;99.90;;;;;;6147130;23;20428;-82
2021/07/22 05:24:37;;;;;;;15.63;11.70;;;17.50;99.90;;;;;;6111817;23;20414;-82
2021/07/22 05:31:33;;;;;;;12.67;10.97;;;17.60;99.90;;;;;;6093850;23;20412;-82
2021/07/22 05:34:37;;;;;;;14.53;12.73;;;17.60;99.90;;;;;;6042312;23;20448;-82
2021/07/22 05:37:11;;;;;;;15.17;12.90;;;17.60;99.90;;;;;;6110817;23;20406;-82
2021/07/22 05:39:48;;;;;;;14.60;11.97;;;17.70;99.90;;;;;;6136402;23;20457;-82
2021/07/22 05:42:16;;;;;;;16.40;11.90;;;17.70;99.90;;;;;;6134328;23;20437;-83
2021/07/22 05:44:45;;;;;;;13.73;11.83;;;17.70;99.90;;;;;;6109325;23;21004;-82
2021/07/22 05:47:21;;;;;;;12.17;9.90;;;17.70;99.90;;;;;;6133448;23;20416;-81
2021/07/22 05:49:49;;;;;;;14.07;11.67;;;17.80;99.90;;;;;;6110102;23;20421;-82
2021/07/22 05:52:18;;;;;;;15.23;12.43;;;17.80;99.90;;;;;;6133923;23;20517;-82
2021/07/22 05:54:53;;;;;;;14.20;10.93;;;17.90;99.90;;;;;;6109357;23;20421;-82
2021/07/22 05:57:27;;;;;;;11.80;9.70;;;17.90;99.90;;;;;;6134070;23;20437;-82
2021/07/22 06:03:05;;;;;;;10.90;9.77;;;18.00;99.90;;;;;;6126087;23;20775;-75
2021/07/22 06:05:35;;;;;;;10.90;9.67;;;18.00;99.90;;;;;;6138015;23;20389;-75
2021/07/22 06:08:04;;;;;;;11.60;10.40;;;18.10;99.90;;;;;;6128607;23;20496;-75
2021/07/22 06:10:32;;;;;;;15.13;10.73;;;18.10;99.90;;;;;;6137699;23;20399;-75
2021/07/22 06:13:00;;;;;;;11.10;9.63;;;18.20;99.90;;;;;;6102070;23;20814;-75
2021/07/22 06:15:29;;;;;;;11.17;9.40;;;18.30;99.90;;;;;;6138210;23;20422;-74
2021/07/22 06:17:57;;;;;;;11.73;9.00;;;18.40;99.90;;;;;;6102075;23;20418;-75
2021/07/22 06:20:26;;;;;;;11.60;9.03;;;18.50;99.90;;;;;;6101855;23;20928;-75
2021/07/22 06:22:54;;;;;;;10.63;9.57;;;18.50;99.90;;;;;;6102075;23;20414;-75
2021/07/22 06:25:23;;;;;;;8.90;7.83;;;18.60;99.90;;;;;;6127944;23;20716;-75
2021/07/22 06:27:51;;;;;;;8.13;7.33;;;18.80;99.90;;;;;;6101833;23;20500;-75
2021/07/22 06:30:19;;;;;;;7.73;6.70;;;18.80;99.90;;;;;;6137475;23;20950;-75
2021/07/22 06:32:47;;;;;;;8.00;6.47;;;18.90;99.90;;;;;;6137600;23;20405;-75
2021/07/22 06:35:15;;;;;;;10.87;7.87;;;18.90;99.90;;;;;;6137722;23;20406;-75
2021/07/22 06:37:46;;;;;;;6.63;6.03;;;19.00;99.90;;;;;;6137627;23;20772;-75
2021/07/22 06:40:21;;;;;;;5.77;5.27;;;19.10;99.90;;;;;;6102805;23;20527;-75
2021/07/22 06:42:49;;;;;;;6.67;6.07;;;19.30;99.90;;;;;;6102106;23;20759;-75
2021/07/22 06:45:17;;;;;;;5.37;4.87;;;19.40;99.90;;;;;;6138151;23;20484;-75
2021/07/22 06:47:45;;;;;;;8.80;5.30;;;19.50;99.90;;;;;;6101788;23;20445;-75
2021/07/22 06:50:14;;;;;;;5.70;4.90;;;19.60;99.90;;;;;;6101724;23;20500;-77
2021/07/22 06:52:42;;;;;;;5.63;4.73;;;19.80;99.90;;;;;;6137628;23;20398;-76
2021/07/22 06:55:12;;;;;;;6.27;5.43;;;19.90;99.90;;;;;;6101869;23;20480;-76
2021/07/22 06:57:41;;;;;;;6.30;5.47;;;20.00;99.90;;;;;;6101692;23;20497;-76
2021/07/22 07:00:10;;;;;;;4.90;4.50;;;20.20;99.90;;;;;;6101426;23;20832;-75
2021/07/22 07:02:38;;;;;;;6.17;5.33;;;20.30;99.90;;;;;;6137338;23;20410;-76
2021/07/22 07:05:07;;;;;;;5.50;4.47;;;20.30;99.90;;;;;;6127843;23;20422;-76
2021/07/22 07:07:38;;;;;;;4.57;4.17;;;20.50;99.90;;;;;;6138170;23;20391;-76
2021/07/22 07:10:08;;;;;;;5.40;4.60;;;20.60;99.90;;;;;;6127753;23;20477;-76
2021/07/22 07:12:37;;;;;;;5.43;4.90;;;20.70;99.90;;;;;;6137308;23;20435;-76
2021/07/22 07:15:07;;;;;;;4.93;4.53;;;20.70;99.90;;;;;;6101143;23;20446;-76
2021/07/22 07:17:36;;;;;;;5.33;4.67;;;20.70;99.90;;;;;;6101619;23;20410;-75
2021/07/22 07:20:06;;;;;;;5.90;5.37;;;20.80;99.90;;;;;;6137296;23;20896;-76
2021/07/22 07:22:34;;;;;;;6.00;5.40;;;20.90;99.90;;;;;;6137184;23;20430;-76
2021/07/22 07:25:02;;;;;;;6.40;5.00;;;21.10;99.90;;;;;;6137255;23;20402;-76
2021/07/22 07:27:30;;;;;;;6.10;5.17;;;21.20;99.90;;;;;;6101231;23;20509;-75
2021/07/22 07:30:00;;;;;;;6.07;5.50;;;21.20;99.90;;;;;;6137040;23;20429;-76
2021/07/22 07:32:28;;;;;;;5.23;4.50;;;21.30;99.90;;;;;;6137211;23;20953;-75
2021/07/22 07:34:56;;;;;;;6.30;5.70;;;21.40;99.90;;;;;;6127643;23;20438;-75
2021/07/22 07:37:24;;;;;;;6.67;6.07;;;21.50;99.90;;;;;;6137460;23;20406;-76
2021/07/22 07:39:52;;;;;;;7.37;5.50;;;21.50;99.90;;;;;;6136985;23;20425;-76
2021/07/22 07:42:20;;;;;;;7.97;6.10;;;21.50;99.90;;;;;;6101051;23;20445;-76
2021/07/22 07:44:48;;;;;;;6.40;5.80;;;21.50;99.90;;;;;;6137012;23;20781;-75
2021/07/22 07:47:18;;;;;;;6.70;6.10;;;21.40;99.90;;;;;;6136941;23;20489;-75
2021/07/22 07:49:46;;;;;;;6.67;6.07;;;21.30;99.90;;;;;;6136982;23;20425;-76
2021/07/22 07:52:14;;;;;;;6.00;4.83;;;21.30;99.90;;;;;;6100842;23;20956;-76
2021/07/22 07:54:43;;;;;;;6.00;5.43;;;21.20;99.90;;;;;;6137247;23;20394;-75
2021/07/22 07:57:11;;;;;;;5.90;5.40;;;21.20;99.90;;;;;;6137232;23;20726;-76
2021/07/22 07:59:39;;;;;;;6.43;5.73;;;21.30;99.90;;;;;;6101104;23;20417;-75
2021/07/22 08:02:07;;;;;;;5.70;5.20;;;21.30;99.90;;;;;;6136569;23;20438;-76
2021/07/22 08:04:37;;;;;;;6.00;5.60;;;21.50;99.90;;;;;;6101177;23;20445;-76
2021/07/22 08:07:06;;;;;;;6.60;6.00;;;21.60;99.90;;;;;;6136596;23;20461;-75
2021/07/22 08:09:34;;;;;;;6.33;5.70;;;21.80;99.90;;;;;;6136959;23;20401;-75
2021/07/22 08:12:05;;;;;;;6.33;5.80;;;21.90;99.90;;;;;;6136878;23;20803;-76
2021/07/22 08:14:36;;;;;;;6.03;5.50;;;21.90;99.80;;;;;;6137155;23;20477;-75
2021/07/22 08:17:06;;;;;;;6.37;5.77;;;22.00;99.80;;;;;;6136820;23;20386;-76
2021/07/22 08:19:35;;;;;;;5.77;5.27;;;22.00;99.60;;;;;;6136956;23;20880;-75
2021/07/22 08:22:05;;;;;;;5.70;5.03;;;22.00;99.50;;;;;;6136447;23;20440;-76
2021/07/22 08:24:34;;;;;;;6.47;4.97;;;21.90;99.40;;;;;;6100882;23;20468;-76
2021/07/22 08:27:02;;;;;;;6.95;5.60;;;21.90;99.50;;;;;;6136147;23;20829;-76
2021/07/22 08:29:30;;;;;;;5.90;5.17;;;21.90;98.90;;;;;;6136554;23;20498;-76
2021/07/22 08:31:58;;;;;;;5.60;5.00;;;21.90;99.00;;;;;;6136598;23;20453;-76
2021/07/22 08:34:26;;;;;;;6.07;5.50;;;21.90;99.00;;;;;;6136470;23;20401;-76
2021/07/22 08:36:55;;;;;;;6.20;5.60;;;22.00;99.10;;;;;;6100314;23;20457;-76
2021/07/22 08:39:24;;;;;;;6.03;5.43;;;22.00;98.80;;;;;;6101414;23;20174;-76
2021/07/22 08:41:52;;;;;;;6.73;5.90;;;22.00;98.80;;;;;;6136274;23;20807;-76
2021/07/22 08:44:20;;;;;;;5.77;5.27;;;22.00;98.90;;;;;;6100534;23;20406;-77
2021/07/22 08:46:49;;;;;;;6.33;5.57;;;22.00;98.90;;;;;;6100637;23;20956;-78
2021/07/22 08:49:17;;;;;;;6.53;5.93;;;21.90;98.70;;;;;;6100481;23;20893;-76
2021/07/22 08:51:45;;;;;;;5.80;4.87;;;21.90;98.70;;;;;;6100372;23;20443;-77
2021/07/22 08:54:14;;;;;;;7.00;6.37;;;22.00;98.70;;;;;;6136287;23;20429;-76
2021/07/22 08:56:44;;;;;;;8.20;6.10;;;22.10;98.70;;;;;;6100867;23;20418;-77
2021/07/22 08:59:12;;;;;;;6.30;5.70;;;22.20;98.60;;;;;;6100723;23;20414;-76
2021/07/22 09:01:42;;;;;;;6.83;5.77;;;22.30;98.50;;;;;;6128439;23;20487;-76
2021/07/22 09:04:11;;;;;;;6.40;5.77;;;22.30;98.50;;;;;;6136276;23;20754;-76
2021/07/22 09:06:39;;;;;;;6.17;5.57;;;22.30;98.30;;;;;;6100568;23;20877;-76
2021/07/22 09:09:15;;;;;;;5.63;5.03;;;22.20;98.10;;;;;;6136678;23;20429;-76
2021/07/22 09:11:55;;;;;;;5.90;5.30;;;22.20;98.20;;;;;;6135961;23;20417;-76
2021/07/22 09:14:25;;;;;;;7.40;5.70;;;22.30;98.20;;;;;;6136592;23;20683;-76
2021/07/22 09:16:53;;;;;;;6.83;6.23;;;22.40;98.20;;;;;;6126335;23;20441;-76
2021/07/22 09:19:40;;;;;;;6.73;6.03;;;22.40;98.10;;;;;;6136132;23;20485;-76
2021/07/22 09:22:10;;;;;;;5.67;5.10;;;22.50;98.10;;;;;;6100169;23;20437;-76
2021/07/22 09:24:49;;;;;;;6.00;5.50;;;22.50;98.00;;;;;;6136110;23;20526;-77
2021/07/22 09:27:39;;;;;;;5.93;5.00;;;22.50;97.70;;;;;;6100083;23;20401;-77
2021/07/22 09:30:09;;;;;;;6.47;5.47;;;22.50;97.80;;;;;;6135971;23;20719;-76
2021/07/22 09:32:40;;;;;;;5.33;4.83;;;22.50;97.70;;;;;;6136120;23;20383;-77
2021/07/22 09:35:13;;;;;;;6.10;5.50;;;22.40;97.70;;;;;;6098907;23;20436;-77
2021/07/22 09:37:43;;;;;;;6.73;4.97;;;22.50;97.10;;;;;;6136247;23;20166;-77
2021/07/22 09:40:15;;;;;;;6.10;5.57;;;22.50;97.20;;;;;;6135832;23;20470;-77
2021/07/22 09:42:47;;;;;;;6.40;5.83;;;22.50;97.20;;;;;;6135980;23;20473;-77
2021/07/22 09:45:17;;;;;;;6.63;6.00;;;22.60;97.30;;;;;;6100382;23;20414;-77
2021/07/22 09:47:46;;;;;;;5.77;5.27;;;22.60;97.30;;;;;;6136922;23;20398;-77
2021/07/22 09:50:16;;;;;;;6.07;5.57;;;22.70;97.30;;;;;;6100028;23;20413;-77
2021/07/22 09:52:45;;;;;;;7.00;5.43;;;22.80;97.30;;;;;;6126449;23;20708;-77
2021/07/22 09:55:30;;;;;;;5.90;5.30;;;22.80;97.30;;;;;;6135936;23;20427;-77
2021/07/22 09:58:01;;;;;;;6.57;5.90;;;22.90;97.20;;;;;;6100760;23;20436;-77
2021/07/22 10:00:30;;;;;;;5.83;5.23;;;22.90;97.30;;;;;;6136494;23;20453;-77
2021/07/22 10:03:02;;;;;;;6.43;5.83;;;22.90;97.20;;;;;;6136055;23;20521;-77
2021/07/22 10:05:32;;;;;;;6.97;6.13;;;22.90;97.40;;;;;;6136010;23;20461;-77
2021/07/22 10:08:04;;;;;;;7.33;5.93;;;22.80;97.00;;;;;;6136262;23;20386;-76
2021/07/22 10:10:34;;;;;;;6.13;5.53;;;22.80;97.00;;;;;;6135786;23;20493;-76
2021/07/22 10:13:05;;;;;;;7.00;6.30;;;22.80;97.00;;;;;;6100007;23;20869;-76
2021/07/22 10:15:35;;;;;;;9.37;5.30;;;22.80;96.90;;;;;;6100063;23;20511;-77
2021/07/22 10:18:06;;;;;;;5.97;5.20;;;22.80;96.90;;;;;;6135982;23;20468;-77
2021/07/22 10:20:35;;;;;;;6.83;6.23;;;22.80;96.80;;;;;;6136079;23;20417;-77
2021/07/22 10:23:04;;;;;;;7.22;6.50;;;22.70;96.70;;;;;;6099685;23;20428;-77
2021/07/22 10:25:32;;;;;;;7.20;6.60;;;22.70;96.30;;;;;;6135968;23;20217;-77
2021/07/22 10:28:01;;;;;;;6.40;5.80;;;22.70;96.30;;;;;;6100168;23;20509;-77
2021/07/22 10:30:31;;;;;;;6.33;5.73;;;22.60;96.30;;;;;;6100224;23;20460;-77
2021/07/22 10:33:02;;;;;;;6.20;5.60;;;22.60;96.70;;;;;;6100528;23;20925;-77
2021/07/22 10:35:32;;;;;;;6.33;5.83;;;22.80;96.20;;;;;;6137267;23;20381;-77
2021/07/22 10:38:05;;;;;;;5.90;5.20;;;22.80;96.20;;;;;;6136629;23;20477;-77
2021/07/22 10:40:51;;;;;;;8.00;5.73;;;22.70;96.20;;;;;;6136235;23;20472;-77
2021/07/22 10:43:39;;;;;;;6.90;5.97;;;22.70;96.20;;;;;;6100396;23;20947;-77
2021/07/22 10:46:10;;;;;;;6.80;6.10;;;22.70;96.20;;;;;;6136374;23;20404;-77
2021/07/22 10:48:40;;;;;;;6.23;5.63;;;22.70;96.20;;;;;;6136340;23;20865;-77
2021/07/22 10:51:10;;;;;;;6.13;5.63;;;22.70;96.20;;;;;;6101096;23;20449;-77
2021/07/22 10:53:40;;;;;;;5.47;5.07;;;22.70;96.10;;;;;;6101880;23;20445;-77
2021/07/22 10:56:10;;;;;;;5.87;5.27;;;22.60;96.10;;;;;;6137583;23;20806;-77
2021/07/22 10:58:51;;;;;;;6.33;5.73;;;22.70;96.20;;;;;;6137384;23;20402;-77
2021/07/22 11:01:53;;;;;;;7.50;6.30;;;22.60;96.10;;;;;;6137810;23;20435;-77
2021/07/22 11:04:45;;;;;;;7.13;5.83;;;22.60;96.00;;;;;;6121275;23;20413;-77
2021/07/22 11:07:24;;;;;;;7.00;6.00;;;22.60;96.00;;;;;;6127591;23;20405;-77
2021/07/22 11:10:12;;;;;;;6.78;5.60;;;22.50;96.00;;;;;;6100504;23;20407;-76
2021/07/22 11:12:48;;;;;;;6.03;5.20;;;22.60;95.90;;;;;;6101659;23;20166;-76
2021/07/22 11:15:39;;;;;;;6.23;5.67;;;22.60;95.80;;;;;;6137343;23;20386;-76
2021/07/22 11:18:55;;;;;;;7.13;5.65;;;22.60;95.90;;;;;;6100378;23;20958;-76
2021/07/22 11:21:27;;;;;;;5.93;5.33;;;22.60;95.50;;;;;;6047884;23;20192;-76
2021/07/22 11:24:03;;;;;;;7.00;5.70;;;22.60;95.60;;;;;;6014634;23;20952;-77
2021/07/22 11:26:33;;;;;;;5.53;5.03;;;22.60;95.70;;;;;;6104770;23;20500;-77
2021/07/22 11:29:13;;;;;;;5.63;5.10;;;22.60;95.70;;;;;;6101722;23;20406;-77
2021/07/22 11:31:42;;;;;;;6.10;5.50;;;22.60;95.60;;;;;;6136917;23;20418;-77
2021/07/22 11:34:13;;;;;;;5.83;5.23;;;22.60;95.60;;;;;;6137179;23;20433;-77
2021/07/22 11:36:41;;;;;;;6.10;5.50;;;22.70;95.60;;;;;;6137013;23;20502;-77
2021/07/22 11:39:09;;;;;;;6.10;5.10;;;22.80;95.60;;;;;;6136984;23;20951;-76
2021/07/22 11:41:37;;;;;;;6.10;5.10;;;22.80;95.40;;;;;;6101779;23;20517;-77
2021/07/22 11:44:07;;;;;;;5.93;5.10;;;22.80;95.40;;;;;;6101089;23;20445;-77
2021/07/22 11:46:41;;;;;;;6.03;5.53;;;22.80;95.30;;;;;;6101198;23;20421;-77
2021/07/22 11:49:10;;;;;;;5.83;5.17;;;22.90;95.30;;;;;;6127342;23;20398;-77
2021/07/22 11:51:42;;;;;;;5.50;4.97;;;22.90;95.30;;;;;;6137005;23;20940;-77
2021/07/22 11:54:11;;;;;;;6.53;4.90;;;22.90;95.30;;;;;;6137436;23;20777;-77
2021/07/22 11:56:40;;;;;;;6.30;5.10;;;22.90;95.30;;;;;;6101365;23;20428;-77
2021/07/22 11:59:10;;;;;;;5.30;4.80;;;22.90;95.10;;;;;;6100950;23;20460;-77
2021/07/22 12:01:49;;;;;;;6.93;6.20;;;22.90;95.10;;;;;;6128102;23;20411;-77
2021/07/22 12:04:24;;;;;;;6.40;5.80;;;22.90;94.60;;;;;;6137620;23;20552;-76
2021/07/22 12:06:55;;;;;;;5.47;4.97;;;22.90;94.60;;;;;;6136807;23;20440;-76
2021/07/22 12:09:23;;;;;;;7.18;5.70;;;22.90;94.70;;;;;;6136680;23;20384;-76
2021/07/22 12:11:53;;;;;;;7.70;5.90;;;22.90;94.80;;;;;;6136618;23;20186;-76
2021/07/22 12:14:27;;;;;;;8.03;5.97;;;22.90;94.80;;;;;;6136701;23;20480;-77
2021/07/22 12:16:57;;;;;;;6.73;5.17;;;22.90;94.80;;;;;;6136802;23;20449;-76
2021/07/22 12:19:26;;;;;;;5.37;4.87;;;23.00;94.90;;;;;;6136477;23;20488;-76
2021/07/22 12:22:24;;;;;;;5.70;5.00;;;23.00;94.70;;;;;;6126834;23;20452;-77
2021/07/22 12:24:54;;;;;;;6.13;5.53;;;23.00;94.60;;;;;;6126871;23;20438;-76
2021/07/22 12:27:27;;;;;;;5.97;5.37;;;23.00;94.50;;;;;;6101282;23;20442;-76
2021/07/22 12:29:55;;;;;;;6.27;5.57;;;23.00;94.50;;;;;;6137456;23;20382;-76
2021/07/22 12:32:24;;;;;;;6.13;5.53;;;23.00;94.50;;;;;;6102006;23;20552;-76
2021/07/22 12:34:52;;;;;;;6.40;5.80;;;23.00;94.40;;;;;;6127178;23;20472;-76
2021/07/22 12:37:42;;;;;;;6.57;5.63;;;23.00;94.60;;;;;;6136770;23;20397;-76
2021/07/22 12:40:11;;;;;;;5.70;5.20;;;23.00;94.50;;;;;;6100320;23;20410;-76
2021/07/22 12:42:57;;;;;;;6.00;5.50;;;23.00;94.30;;;;;;6136574;23;20402;-76
2021/07/22 12:45:25;;;;;;;6.60;6.07;;;23.00;94.20;;;;;;6100611;23;20429;-76
2021/07/22 12:47:53;;;;;;;5.43;4.93;;;23.00;94.20;;;;;;6136833;23;20726;-76
2021/07/22 12:50:32;;;;;;;6.53;5.57;;;23.00;94.10;;;;;;6136145;23;20426;-76
2021/07/22 12:53:03;;;;;;;6.30;5.30;;;23.00;94.10;;;;;;6136293;23;20408;-76
2021/07/22 12:55:33;;;;;;;8.57;5.57;;;23.00;94.00;;;;;;6126872;23;20474;-76
2021/07/22 12:58:02;;;;;;;5.80;5.20;;;23.00;93.90;;;;;;6100325;23;20426;-76
2021/07/22 13:00:30;;;;;;;5.30;4.80;;;23.00;93.90;;;;;;6101277;23;20521;-76
2021/07/22 13:03:01;;;;;;;5.90;5.30;;;23.00;94.00;;;;;;6100295;23;20433;-76
2021/07/22 13:05:29;;;;;;;5.80;5.30;;;23.10;94.00;;;;;;6136986;23;20410;-76
2021/07/22 13:07:58;;;;;;;5.40;4.70;;;23.10;93.80;;;;;;6126556;23;20417;-76
2021/07/22 13:10:45;;;;;;;6.00;5.40;;;23.10;93.70;;;;;;6136674;23;20491;-76
2021/07/22 13:13:13;;;;;;;4.93;4.53;;;23.20;93.70;;;;;;6135823;23;20433;-76
2021/07/22 13:15:42;;;;;;;4.87;4.37;;;23.20;93.70;;;;;;6135918;23;20437;-76
2021/07/22 13:18:10;;;;;;;4.70;4.20;;;23.30;93.60;;;;;;6100193;23;20464;-76
2021/07/22 13:20:38;;;;;;;5.00;4.60;;;23.30;93.30;;;;;;6100425;23;20430;-76
2021/07/22 13:23:06;;;;;;;4.60;4.17;;;23.40;93.20;;;;;;6126737;23;20422;-76
2021/07/22 13:25:34;;;;;;;5.60;5.10;;;23.50;93.20;;;;;;6136054;23;20401;-76
2021/07/22 13:28:05;;;;;;;4.70;4.30;;;23.50;93.10;;;;;;6136004;23;20424;-76
2021/07/22 13:30:33;;;;;;;4.47;4.10;;;23.60;93.10;;;;;;6135860;23;20414;-76
2021/07/22 13:33:03;;;;;;;5.47;4.97;;;23.70;93.00;;;;;;6100356;23;20524;-76
2021/07/22 13:35:34;;;;;;;6.20;5.67;;;23.60;92.80;;;;;;6101091;23;20485;-76
2021/07/22 13:38:04;;;;;;;4.40;4.10;;;23.60;92.70;;;;;;6124783;23;20425;-76
2021/07/22 13:40:33;;;;;;;5.57;5.07;;;23.60;92.70;;;;;;6125760;23;20428;-76
2021/07/22 13:43:01;;;;;;;4.80;4.40;;;23.70;92.50;;;;;;6101071;23;20181;-76
2021/07/22 13:45:32;;;;;;;6.13;5.63;;;23.80;92.50;;;;;;6101744;23;20549;-76
2021/07/22 13:48:01;;;;;;;4.83;4.43;;;23.80;92.40;;;;;;6100237;23;20476;-75
2021/07/22 13:50:29;;;;;;;5.13;4.72;;;23.80;92.40;;;;;;6098783;23;20477;-75
2021/07/22 13:52:57;;;;;;;4.40;4.00;;;24.00;91.90;;;;;;6100189;23;20178;-77
2021/07/22 13:55:25;;;;;;;5.87;5.30;;;23.90;91.90;;;;;;6125870;23;20972;-75
2021/07/22 13:58:01;;;;;;;5.17;4.70;;;23.90;92.00;;;;;;6120717;23;20449;-84
2021/07/22 14:00:33;;;;;;;5.10;4.60;;;23.90;92.10;;;;;;6130947;23;20445;-84
2021/07/22 14:03:04;;;;;;;4.93;4.40;;;23.90;92.00;;;;;;6105682;23;20444;-84
2021/07/22 14:05:33;;;;;;;5.53;5.03;;;23.90;92.10;;;;;;6107139;23;20461;-84
2021/07/22 14:08:02;;;;;;;4.97;4.23;;;23.80;92.10;;;;;;6107172;23;20414;-83
2021/07/22 14:10:34;;;;;;;6.23;5.00;;;23.80;92.10;;;;;;6105891;23;20446;-84